createdAt,value
2023-02-18T00:01:10.878Z,76.37
2023-02-18T00:03:37.862Z,76.39
2023-02-18T00:06:15.409Z,76.13
2023-02-18T00:08:43.550Z,75.77
2023-02-18T00:11:10.277Z,75.36
2023-02-18T00:13:37.201Z,76.00
2023-02-18T00:16:05.847Z,76.25
2023-02-18T00:18:32.745Z,75.98
2023-02-18T00:20:59.506Z,75.25
2023-02-18T00:23:26.608Z,75.62
2023-02-18T00:26:05.263Z,75.80
2023-02-18T00:28:32.101Z,75.81
2023-02-18T00:30:58.744Z,75.91
2023-02-18T00:33:25.520Z,75.72
2023-02-18T00:35:52.097Z,75.57
2023-02-18T00:38:18.629Z,75.86
2023-02-18T00:40:45.257Z,74.75
2023-02-18T00:43:11.871Z,75.13
2023-02-18T00:45:38.468Z,75.33
2023-02-18T00:48:05.229Z,75.20
2023-02-18T00:50:31.821Z,74.82
2023-02-18T00:52:58.459Z,75.67
2023-02-18T00:55:25.109Z,75.92
2023-02-18T00:57:51.670Z,76.60
2023-02-18T01:00:18.683Z,76.15
2023-02-18T01:02:45.305Z,76.27
2023-02-18T01:05:12.179Z,76.14
2023-02-18T01:07:38.792Z,75.67
2023-02-18T01:10:06.093Z,75.51
2023-02-18T01:12:32.682Z,76.06
2023-02-18T01:14:59.268Z,76.00
2023-02-18T01:17:25.973Z,75.69
2023-02-18T01:19:52.580Z,75.78
2023-02-18T01:22:19.159Z,76.30
2023-02-18T01:24:46.525Z,76.59
2023-02-18T01:27:13.162Z,76.41
2023-02-18T01:29:39.784Z,76.78
2023-02-18T01:32:06.509Z,76.87
2023-02-18T01:34:33.834Z,77.25
2023-02-18T01:37:00.402Z,77.50
2023-02-18T01:39:27.021Z,77.61
2023-02-18T01:41:53.804Z,77.68
2023-02-18T01:44:24.503Z,77.97
2023-02-18T01:46:51.292Z,78.39
2023-02-18T01:49:30.687Z,78.12
2023-02-18T01:52:18.891Z,77.88
2023-02-18T01:54:51.634Z,77.56
2023-02-18T01:57:32.902Z,77.36
2023-02-18T02:00:08.514Z,77.50
2023-02-18T02:02:40.283Z,77.88
2023-02-18T02:05:07.783Z,78.07
2023-02-18T02:07:34.697Z,77.85
2023-02-18T02:10:02.248Z,78.26
2023-02-18T02:12:41.614Z,78.15
2023-02-18T02:15:56.463Z,78.07
2023-02-18T02:18:40.670Z,78.14
2023-02-18T02:21:48.826Z,78.56
2023-02-18T02:24:54.650Z,78.38
2023-02-18T02:27:58.141Z,78.10
2023-02-18T02:30:51.121Z,78.32
2023-02-18T02:33:28.731Z,78.20
2023-02-18T02:36:27.640Z,79.32
2023-02-18T02:39:03.696Z,78.89
2023-02-18T02:42:09.875Z,78.90
2023-02-18T02:44:45.654Z,78.78
2023-02-18T02:47:20.790Z,78.66
2023-02-18T02:50:10.339Z,78.80
2023-02-18T02:52:50.265Z,79.04
2023-02-18T02:55:16.998Z,79.24
2023-02-18T02:57:50.152Z,79.16
2023-02-18T03:00:21.305Z,79.40
2023-02-18T03:03:43.289Z,79.24
2023-02-18T03:10:26.049Z,79.47
2023-02-18T03:25:13.179Z,79.94
2023-02-18T03:27:50.702Z,79.73
2023-02-18T03:30:26.790Z,80.13
2023-02-18T03:32:58.107Z,80.31
2023-02-18T03:35:26.137Z,80.13
2023-02-18T03:41:06.219Z,80.55
2023-02-18T03:43:34.183Z,80.87
2023-02-18T03:46:02.513Z,81.10
2023-02-18T03:48:29.472Z,81.13
2023-02-18T03:50:56.127Z,81.77
2023-02-18T03:53:22.948Z,81.67
2023-02-18T03:55:49.543Z,81.43
2023-02-18T03:58:16.299Z,81.75
2023-02-18T04:00:42.876Z,81.94
2023-02-18T04:03:09.493Z,81.72
2023-02-18T04:05:36.615Z,81.75
2023-02-18T04:08:03.242Z,82.16
2023-02-18T04:10:29.902Z,82.47
2023-02-18T04:12:56.653Z,82.74
2023-02-18T04:15:23.275Z,82.58
2023-02-18T04:17:50.053Z,82.93
2023-02-18T04:20:16.734Z,83.41
2023-02-18T04:22:43.376Z,83.48
2023-02-18T04:25:10.066Z,83.37
2023-02-18T04:27:36.786Z,83.62
2023-02-18T04:30:05.315Z,83.88
2023-02-18T04:32:31.964Z,83.79
2023-02-18T04:34:58.579Z,83.55
2023-02-18T04:37:25.250Z,83.29
2023-02-18T04:39:51.864Z,83.54
2023-02-18T04:42:18.458Z,83.11
2023-02-18T04:44:47.282Z,83.15
2023-02-18T04:47:14.500Z,82.62
2023-02-18T04:49:41.139Z,82.43
2023-02-18T04:52:07.881Z,82.55
2023-02-18T04:54:34.519Z,82.55
2023-02-18T04:57:01.184Z,82.68
2023-02-18T04:59:27.802Z,82.50
2023-02-18T05:01:54.426Z,82.47
2023-02-18T05:04:21.133Z,82.58
2023-02-18T05:06:47.778Z,82.55
2023-02-18T05:09:14.839Z,82.54
2023-02-18T05:11:42.560Z,82.63
2023-02-18T05:14:11.536Z,83.15
2023-02-18T05:16:38.135Z,83.27
2023-02-18T05:19:04.764Z,83.33
2023-02-18T05:21:31.699Z,83.19
2023-02-18T05:23:58.893Z,83.03
2023-02-18T05:26:25.571Z,82.54
2023-02-18T05:28:52.188Z,82.16
2023-02-18T05:31:18.847Z,81.57
2023-02-18T05:33:45.432Z,81.91
2023-02-18T05:36:12.064Z,82.24
2023-02-18T05:38:38.732Z,82.07
2023-02-18T05:41:05.384Z,81.91
2023-02-18T05:43:52.085Z,81.52
2023-02-18T05:46:18.695Z,81.91
2023-02-18T05:48:45.343Z,82.07
2023-02-18T05:51:11.897Z,81.79
2023-02-18T05:53:38.525Z,81.80
2023-02-18T05:56:05.990Z,82.10
2023-02-18T05:58:32.625Z,81.32
2023-02-18T06:00:59.216Z,81.50
2023-02-18T06:03:25.828Z,81.60
2023-02-18T06:05:52.969Z,82.04
2023-02-18T06:08:22.583Z,82.11
2023-02-18T06:10:49.147Z,81.94
2023-02-18T06:13:15.838Z,81.85
2023-02-18T06:15:42.518Z,81.41
2023-02-18T06:18:09.133Z,81.89
2023-02-18T06:20:35.921Z,81.87
2023-02-18T06:23:02.478Z,81.37
2023-02-18T06:25:29.060Z,81.32
2023-02-18T06:27:55.676Z,81.40
2023-02-18T06:30:23.635Z,81.51
2023-02-18T06:32:51.156Z,81.53
2023-02-18T06:35:17.868Z,81.74
2023-02-18T06:37:44.969Z,81.84
2023-02-18T06:40:11.919Z,81.88
2023-02-18T06:42:38.551Z,81.98
2023-02-18T06:45:06.755Z,82.50
2023-02-18T06:47:34.501Z,82.43
2023-02-18T06:50:01.125Z,82.08
2023-02-18T06:52:27.743Z,81.99
2023-02-18T06:54:54.448Z,82.03
2023-02-18T06:57:21.063Z,82.12
2023-02-18T06:59:47.614Z,82.00
2023-02-18T07:02:14.443Z,82.16
2023-02-18T07:04:41.205Z,82.28
2023-02-18T07:07:07.846Z,82.63
2023-02-18T07:09:34.458Z,83.03
2023-02-18T07:12:01.059Z,83.11
2023-02-18T07:14:28.461Z,83.46
2023-02-18T07:16:55.119Z,82.82
2023-02-18T07:19:21.774Z,83.10
2023-02-18T07:21:48.395Z,83.13
2023-02-18T07:24:15.032Z,83.32
2023-02-18T07:26:41.673Z,84.22
2023-02-18T07:29:08.303Z,84.03
2023-02-18T07:31:34.999Z,84.15
2023-02-18T07:34:01.712Z,84.43
2023-02-18T07:36:28.310Z,84.68
2023-02-18T07:38:54.896Z,84.82
2023-02-18T07:41:23.208Z,84.85
2023-02-18T07:43:49.929Z,84.46
2023-02-18T07:46:16.931Z,84.50
2023-02-18T07:48:43.608Z,84.33
2023-02-18T07:51:11.724Z,84.23
2023-02-18T07:53:38.515Z,84.12
2023-02-18T07:56:06.536Z,84.23
2023-02-18T07:58:35.944Z,83.84
2023-02-18T08:01:11.810Z,83.47
2023-02-18T08:03:38.789Z,83.93
2023-02-18T08:06:06.542Z,83.53
2023-02-18T08:08:36.692Z,83.58
2023-02-18T08:11:17.982Z,83.60
2023-02-18T08:13:47.200Z,83.31
2023-02-18T08:16:14.555Z,82.82
2023-02-18T08:18:41.304Z,83.21
2023-02-18T08:21:07.916Z,83.15
2023-02-18T08:23:34.581Z,83.26
2023-02-18T08:26:01.382Z,82.71
2023-02-18T08:28:27.962Z,82.60
2023-02-18T08:30:55.275Z,82.54
2023-02-18T08:33:23.249Z,82.27
2023-02-18T08:35:51.636Z,82.77
2023-02-18T08:38:18.646Z,82.63
2023-02-18T08:40:46.049Z,82.83
2023-02-18T08:43:13.533Z,82.78
2023-02-18T08:45:41.192Z,82.95
2023-02-18T08:48:17.521Z,81.91
2023-02-18T08:50:45.535Z,82.43
2023-02-18T08:53:12.161Z,81.91
2023-02-18T08:55:40.659Z,81.38
2023-02-18T08:58:07.336Z,81.84
2023-02-18T09:00:34.482Z,82.14
2023-02-18T09:03:01.180Z,81.90
2023-02-18T09:05:28.171Z,81.92
2023-02-18T09:07:54.807Z,80.67
2023-02-18T09:10:21.736Z,79.86
2023-02-18T09:12:48.451Z,79.36
2023-02-18T09:15:15.141Z,79.37
2023-02-18T09:17:41.738Z,79.71
2023-02-18T09:20:09.371Z,79.34
2023-02-18T09:22:36.084Z,79.62
2023-02-18T09:25:03.736Z,79.43
2023-02-18T09:27:30.367Z,79.05
2023-02-18T09:29:57.014Z,79.53
2023-02-18T09:32:34.419Z,78.91
2023-02-18T09:35:03.448Z,79.15
2023-02-18T09:37:30.535Z,78.69
2023-02-18T09:39:57.301Z,78.83
2023-02-18T09:42:32.354Z,78.35
2023-02-18T09:45:02.876Z,78.60
2023-02-18T09:47:37.401Z,78.73
2023-02-18T09:50:27.430Z,79.06
2023-02-18T09:52:54.515Z,78.08
2023-02-18T09:55:38.841Z,77.69
2023-02-18T09:58:15.406Z,77.24
2023-02-18T10:00:48.855Z,77.25
2023-02-18T10:03:18.344Z,77.14
2023-02-18T10:06:11.712Z,77.42
2023-02-18T10:08:44.476Z,76.66
2023-02-18T10:11:16.549Z,76.90
2023-02-18T10:13:44.238Z,76.59
2023-02-18T10:16:17.026Z,76.12
2023-02-18T10:18:49.264Z,74.95
2023-02-18T10:21:20.999Z,73.69
2023-02-18T10:24:09.080Z,71.63
2023-02-18T10:26:37.871Z,71.12
2023-02-18T10:29:21.556Z,69.83
2023-02-18T10:32:36.556Z,70.37
2023-02-18T10:35:20.486Z,70.23
2023-02-18T10:38:07.259Z,70.67
2023-02-18T10:41:11.594Z,70.40
2023-02-18T10:44:03.638Z,70.47
2023-02-18T10:47:08.126Z,69.76
2023-02-18T10:50:09.947Z,70.15
2023-02-18T10:52:45.743Z,68.41
2023-02-18T10:55:18.417Z,68.40
2023-02-18T10:57:51.779Z,68.25
2023-02-18T11:00:25.325Z,67.77
2023-02-18T11:03:19.149Z,68.55
2023-02-18T11:05:47.579Z,68.66
2023-02-18T11:08:22.961Z,68.35
2023-02-18T11:10:50.469Z,68.36
2023-02-18T11:13:25.188Z,68.59
2023-02-18T11:16:05.214Z,68.56
2023-02-18T11:18:43.981Z,68.88
2023-02-18T11:21:30.410Z,69.03
2023-02-18T11:23:58.093Z,68.15
2023-02-18T11:26:30.988Z,68.65
2023-02-18T11:29:06.551Z,67.72
2023-02-18T11:31:55.522Z,67.24
2023-02-18T11:34:32.824Z,66.41
2023-02-18T11:37:11.922Z,66.86
2023-02-18T11:39:44.650Z,67.18
2023-02-18T11:42:15.486Z,67.44
2023-02-18T11:44:50.677Z,66.88
2023-02-18T11:47:42.370Z,65.80
2023-02-18T11:50:21.441Z,66.17
2023-02-18T11:52:50.251Z,65.43
2023-02-18T11:55:23.188Z,65.17
2023-02-18T11:58:05.357Z,63.64
2023-02-18T12:00:45.459Z,63.20
2023-02-18T12:04:02.779Z,64.60
2023-02-18T12:06:37.882Z,62.92
2023-02-18T12:09:15.234Z,62.08
2023-02-18T12:11:47.085Z,63.44
2023-02-18T12:14:33.401Z,62.77
2023-02-18T12:17:54.180Z,62.97
2023-02-18T12:20:53.014Z,62.82
2023-02-18T12:23:51.206Z,63.14
2023-02-18T12:26:45.080Z,63.93
2023-02-18T12:29:21.888Z,62.42
2023-02-18T12:32:00.126Z,62.26
2023-02-18T12:34:32.365Z,63.59
2023-02-18T12:37:26.689Z,62.25
2023-02-18T12:40:37.804Z,61.37
2023-02-18T12:46:49.209Z,61.89
2023-02-18T12:49:53.677Z,62.14
2023-02-18T12:52:34.973Z,61.75
2023-02-18T12:55:21.726Z,62.29
2023-02-18T12:58:10.272Z,64.45
2023-02-18T13:01:17.832Z,63.23
2023-02-18T13:04:36.521Z,62.69
2023-02-18T13:07:31.975Z,62.15
2023-02-18T13:10:29.525Z,62.69
2023-02-18T13:13:08.201Z,63.12
2023-02-18T13:15:58.360Z,62.72
2023-02-18T13:18:31.325Z,63.90
2023-02-18T13:21:06.052Z,64.13
2023-02-18T13:23:38.176Z,64.71
2023-02-18T13:26:09.754Z,64.25
2023-02-18T13:29:15.104Z,64.53
2023-02-18T13:31:56.784Z,64.63
2023-02-18T13:34:44.591Z,64.52
2023-02-18T13:37:33.207Z,65.12
2023-02-18T13:40:01.335Z,65.06
2023-02-18T13:42:37.389Z,65.53
2023-02-18T13:45:23.933Z,65.24
2023-02-18T13:47:51.926Z,65.30
2023-02-18T13:50:31.076Z,64.01
2023-02-18T13:53:15.671Z,64.34
2023-02-18T13:55:53.516Z,64.64
2023-02-18T13:58:31.508Z,64.74
2023-02-18T14:01:31.432Z,63.99
2023-02-18T14:03:59.776Z,65.19
2023-02-18T14:06:29.821Z,65.07
2023-02-18T14:09:25.059Z,64.14
2023-02-18T14:11:57.857Z,64.53
2023-02-18T14:14:36.013Z,64.62
2023-02-18T14:17:20.925Z,64.97
2023-02-18T14:19:59.752Z,64.07
2023-02-18T14:22:34.286Z,65.07
2023-02-18T14:25:35.465Z,64.54
2023-02-18T14:28:24.393Z,65.42
2023-02-18T14:30:52.193Z,65.00
2023-02-18T14:33:19.478Z,65.73
2023-02-18T14:36:00.446Z,64.13
2023-02-18T14:38:59.208Z,64.67
2023-02-18T14:41:40.789Z,64.11
2023-02-18T14:44:39.205Z,64.95
2023-02-18T14:47:30.636Z,65.22
2023-02-18T14:50:01.108Z,66.08
2023-02-18T14:52:35.645Z,65.68
2023-02-18T14:55:05.212Z,66.25
2023-02-18T14:57:38.956Z,65.75
2023-02-18T15:00:07.299Z,65.99
2023-02-18T15:02:38.553Z,65.87
2023-02-18T15:05:23.050Z,65.97
2023-02-18T15:08:17.276Z,66.04
2023-02-18T15:11:01.424Z,65.73
2023-02-18T15:13:31.027Z,65.79
2023-02-18T15:16:05.225Z,65.31
2023-02-18T15:18:41.572Z,65.67
2023-02-18T15:21:18.289Z,65.82
2023-02-18T15:23:44.920Z,65.69
2023-02-18T15:26:15.096Z,64.67
2023-02-18T15:29:00.020Z,65.10
2023-02-18T15:31:28.873Z,64.10
2023-02-18T15:33:55.888Z,64.54
2023-02-18T15:36:25.227Z,65.23
2023-02-18T15:38:51.930Z,64.88
2023-02-18T15:41:20.666Z,64.52
2023-02-18T15:43:56.210Z,64.30
2023-02-18T15:46:26.347Z,65.40
2023-02-18T15:48:54.486Z,64.73
2023-02-18T15:51:25.451Z,65.38
2023-02-18T15:53:56.701Z,64.66
2023-02-18T15:56:33.997Z,64.37
2023-02-18T15:59:10.739Z,65.27
2023-02-18T16:01:37.536Z,65.28
2023-02-18T16:04:07.354Z,65.66
2023-02-18T16:06:39.544Z,65.02
2023-02-18T16:09:19.809Z,64.50
2023-02-18T16:11:52.951Z,62.91
2023-02-18T16:14:31.661Z,63.47
2023-02-18T16:17:05.241Z,62.22
2023-02-18T16:19:32.073Z,62.79
2023-02-18T16:22:05.619Z,63.89
2023-02-18T16:24:40.034Z,63.27
2023-02-18T16:27:07.563Z,63.55
2023-02-18T16:29:41.360Z,62.86
2023-02-18T16:32:08.081Z,63.04
2023-02-18T16:34:35.825Z,62.60
2023-02-18T16:37:21.733Z,63.21
2023-02-18T16:39:51.975Z,63.49
2023-02-18T16:42:18.683Z,63.66
2023-02-18T16:44:45.318Z,63.71
2023-02-18T16:47:16.201Z,64.22
2023-02-18T16:49:46.517Z,63.84
2023-02-18T16:52:15.224Z,63.80
2023-02-18T16:54:41.784Z,63.87
2023-02-18T16:57:12.389Z,63.91
2023-02-18T16:59:38.910Z,64.52
2023-02-18T17:02:16.062Z,64.58
2023-02-18T17:04:42.750Z,65.12
2023-02-18T17:07:11.130Z,65.42
2023-02-18T17:09:37.845Z,65.32
2023-02-18T17:12:05.069Z,65.87
2023-02-18T17:14:32.008Z,65.89
2023-02-18T17:16:59.104Z,65.78
2023-02-18T17:19:25.791Z,66.34
2023-02-18T17:21:52.472Z,65.69
2023-02-18T17:24:19.675Z,66.59
2023-02-18T17:26:46.360Z,66.58
2023-02-18T17:29:13.804Z,67.02
2023-02-18T17:31:47.157Z,66.42
2023-02-18T17:34:24.749Z,66.49
2023-02-18T17:36:51.366Z,66.96
2023-02-18T17:39:21.525Z,66.82
2023-02-18T17:41:48.743Z,67.04
2023-02-18T17:44:17.607Z,67.59
2023-02-18T17:46:44.733Z,68.25
2023-02-18T17:49:11.359Z,67.72
2023-02-18T17:51:39.302Z,67.49
2023-02-18T17:54:17.689Z,67.79
2023-02-18T17:56:44.812Z,67.80
2023-02-18T17:59:11.541Z,67.72
2023-02-18T18:01:38.629Z,67.17
2023-02-18T18:04:13.162Z,67.41
2023-02-18T18:06:39.778Z,67.21
2023-02-18T18:09:06.558Z,67.42
2023-02-18T18:11:33.361Z,67.52
2023-02-18T18:13:59.974Z,67.59
2023-02-18T18:16:27.311Z,67.81
2023-02-18T18:18:53.920Z,67.54
2023-02-18T18:21:34.512Z,68.00
2023-02-18T18:24:01.974Z,68.02
2023-02-18T18:26:29.206Z,67.92
2023-02-18T18:28:55.882Z,68.75
2023-02-18T18:31:22.751Z,68.25
2023-02-18T18:33:53.026Z,67.99
2023-02-18T18:36:21.053Z,68.42
2023-02-18T18:38:47.676Z,68.41
2023-02-18T18:41:17.044Z,68.14
2023-02-18T18:43:43.816Z,68.33
2023-02-18T18:46:10.496Z,69.64
2023-02-18T18:48:37.418Z,68.41
2023-02-18T18:51:04.591Z,68.52
2023-02-18T18:53:34.034Z,68.77
2023-02-18T18:56:03.685Z,68.55
2023-02-18T18:58:30.669Z,68.00
2023-02-18T19:01:00.393Z,68.25
2023-02-18T19:03:28.957Z,68.49
2023-02-18T19:05:56.633Z,69.22
2023-02-18T19:08:23.596Z,69.40
2023-02-18T19:10:55.585Z,68.85
2023-02-18T19:13:26.607Z,68.78
2023-02-18T19:16:39.465Z,68.05
2023-02-18T19:19:06.153Z,67.26
2023-02-18T19:21:33.440Z,67.53
2023-02-18T19:23:59.985Z,67.85
2023-02-18T19:26:26.587Z,67.66
2023-02-18T19:28:53.315Z,68.73
2023-02-18T19:31:24.237Z,69.00
2023-02-18T19:33:52.061Z,69.23
2023-02-18T19:36:19.269Z,68.68
2023-02-18T19:38:46.574Z,68.86
2023-02-18T19:41:16.867Z,68.13
2023-02-18T19:43:44.701Z,68.74
2023-02-18T19:46:14.476Z,68.62
2023-02-18T19:48:42.065Z,68.68
2023-02-18T19:51:09.924Z,68.36
2023-02-18T19:53:37.048Z,69.30
2023-02-18T19:56:07.935Z,69.13
2023-02-18T19:58:35.436Z,68.29
2023-02-18T20:01:02.603Z,68.97
2023-02-18T20:03:29.532Z,68.74
2023-02-18T20:05:56.163Z,68.48
2023-02-18T20:08:22.839Z,68.29
2023-02-18T20:10:59.600Z,68.38
2023-02-18T20:13:26.678Z,68.19
2023-02-18T20:15:53.268Z,68.57
2023-02-18T20:18:19.928Z,68.51
2023-02-18T20:20:50.298Z,68.99
2023-02-18T20:23:16.990Z,69.01
2023-02-18T20:25:43.622Z,68.23
2023-02-18T20:28:10.159Z,68.46
2023-02-18T20:30:36.788Z,68.52
2023-02-18T20:33:03.438Z,68.42
2023-02-18T20:35:30.011Z,68.56
2023-02-18T20:37:56.604Z,68.73
2023-02-18T20:40:23.354Z,68.46
2023-02-18T20:42:50.081Z,68.37
2023-02-18T20:45:16.737Z,68.73
2023-02-18T20:47:43.356Z,69.27
2023-02-18T20:50:10.078Z,68.79
2023-02-18T20:52:36.694Z,69.11
2023-02-18T20:55:03.545Z,69.24
2023-02-18T20:57:30.181Z,70.48
2023-02-18T20:59:58.339Z,71.90
2023-02-18T21:02:24.953Z,73.08
2023-02-18T21:04:51.622Z,73.20
2023-02-18T21:07:18.252Z,72.26
2023-02-18T21:09:44.832Z,71.21
2023-02-18T21:12:11.409Z,70.10
2023-02-18T21:14:38.021Z,70.63
2023-02-18T21:17:04.948Z,69.73
2023-02-18T21:19:32.107Z,69.63
2023-02-18T21:22:00.003Z,69.90
2023-02-18T21:24:28.244Z,70.42
2023-02-18T21:26:54.891Z,70.59
2023-02-18T21:29:21.469Z,70.50
2023-02-18T21:31:48.173Z,70.92
2023-02-18T21:34:15.414Z,70.09
2023-02-18T21:36:43.205Z,70.35
2023-02-18T21:39:10.661Z,71.10
2023-02-18T21:41:40.404Z,74.25
2023-02-18T21:44:08.664Z,78.36
2023-02-18T21:46:36.478Z,81.67
2023-02-18T21:49:13.130Z,84.30
2023-02-18T21:51:58.190Z,86.24
2023-02-18T21:54:45.039Z,86.97
2023-02-18T21:57:17.157Z,87.28
2023-02-18T21:59:45.304Z,87.33
2023-02-18T22:02:18.984Z,87.32
2023-02-18T22:04:46.258Z,87.44
2023-02-18T22:07:13.057Z,88.51
2023-02-18T22:09:39.766Z,88.71
2023-02-18T22:12:07.343Z,88.46
2023-02-18T22:14:33.963Z,88.39
2023-02-18T22:17:00.689Z,88.14
2023-02-18T22:19:27.416Z,87.92
2023-02-18T22:21:54.153Z,87.64
2023-02-18T22:24:20.811Z,86.80
2023-02-18T22:26:48.947Z,86.53
2023-02-18T22:29:18.049Z,86.83
2023-02-18T22:31:45.105Z,86.98
2023-02-18T22:34:11.706Z,87.61
2023-02-18T22:36:38.892Z,89.28
2023-02-18T22:39:06.450Z,90.31
2023-02-18T22:41:36.040Z,90.70
2023-02-18T22:44:05.703Z,91.13
2023-02-18T22:46:34.740Z,91.64
2023-02-18T22:49:02.452Z,93.16
2023-02-18T22:51:32.888Z,92.90
2023-02-18T22:54:01.004Z,93.03
2023-02-18T22:56:29.028Z,93.70
2023-02-18T22:58:57.231Z,93.99
2023-02-18T23:01:32.948Z,93.59
2023-02-18T23:04:05.859Z,93.05
2023-02-18T23:06:33.019Z,92.53
2023-02-18T23:08:59.744Z,90.80
2023-02-18T23:11:27.402Z,90.21
2023-02-18T23:14:13.778Z,88.70
2023-02-18T23:17:02.744Z,88.44
2023-02-18T23:19:31.526Z,88.03
2023-02-18T23:21:58.494Z,88.19
2023-02-18T23:24:25.209Z,88.18
2023-02-18T23:26:51.934Z,88.18
2023-02-18T23:29:18.674Z,88.71
2023-02-18T23:31:45.385Z,88.89
2023-02-18T23:34:14.692Z,89.40
2023-02-18T23:36:42.990Z,88.71
2023-02-18T23:39:11.951Z,89.14
2023-02-18T23:41:38.679Z,88.89
2023-02-18T23:44:07.281Z,88.41
2023-02-18T23:46:34.414Z,88.18
2023-02-18T23:49:01.529Z,88.29
2023-02-18T23:51:29.744Z,88.13
2023-02-18T23:53:56.787Z,88.24
2023-02-18T23:56:25.952Z,88.14
2023-02-18T23:58:58.044Z,88.63
